Time;durP1;ratioP1;P1;durP2;ratioP2;P2;SDS_P1;SDS_P2;PMS_P1;PMS_P2;Temp;Humidity;BMP_temperature;BMP_pressure;BME280_temperature;BME280_humidity;BME280_pressure;Samples;Min_cycle;Max_cycle;Signal;HPM_P1;HPM_P2
2023/09/22 00:00:18;;;;;;;1.73;1.10;;;13.40;99.90;;;;;;4967931;28;20860;-71
2023/09/22 00:02:46;;;;;;;1.60;1.20;;;13.40;99.90;;;;;;4950629;28;20416;-71
2023/09/22 00:05:12;;;;;;;1.47;1.13;;;13.30;99.90;;;;;;4984096;28;20187;-71
2023/09/22 00:07:38;;;;;;;1.80;1.50;;;13.30;99.90;;;;;;4966328;28;20429;-69
2023/09/22 00:10:06;;;;;;;2.53;1.67;;;13.20;99.90;;;;;;4966655;28;20463;-69
2023/09/22 00:12:32;;;;;;;2.27;1.60;;;13.20;99.90;;;;;;4982081;28;20193;-72
2023/09/22 00:14:58;;;;;;;2.20;1.23;;;13.20;99.90;;;;;;4966665;28;20430;-72
2023/09/22 00:17:27;;;;;;;1.87;1.10;;;13.10;99.90;;;;;;4984617;28;20419;-70
2023/09/22 00:19:54;;;;;;;2.47;1.50;;;13.10;99.90;;;;;;4986414;28;20491;-72
2023/09/22 00:22:19;;;;;;;1.90;1.47;;;13.00;99.90;;;;;;4984815;28;20473;-70
2023/09/22 00:24:45;;;;;;;2.20;1.90;;;12.90;99.90;;;;;;4983699;28;20450;-71
2023/09/22 00:27:10;;;;;;;3.00;1.90;;;12.90;99.90;;;;;;4966201;28;20489;-71
2023/09/22 00:29:36;;;;;;;2.43;1.90;;;12.80;99.90;;;;;;4966596;28;20635;-70
2023/09/22 00:32:03;;;;;;;2.10;1.53;;;12.80;99.90;;;;;;4970285;28;20215;-70
2023/09/22 00:34:31;;;;;;;3.20;1.57;;;12.70;99.90;;;;;;4988588;28;20216;-71
2023/09/22 00:36:57;;;;;;;2.50;1.70;;;12.70;99.90;;;;;;4953019;28;20408;-71
2023/09/22 00:39:22;;;;;;;2.60;1.87;;;12.70;99.90;;;;;;4983957;28;20440;-71
2023/09/22 00:41:48;;;;;;;2.10;1.60;;;12.70;99.90;;;;;;4971032;28;20450;-72
2023/09/22 00:44:13;;;;;;;2.73;1.57;;;12.60;99.90;;;;;;4949955;28;20271;-71
2023/09/22 00:46:40;;;;;;;2.53;1.50;;;12.60;99.90;;;;;;4983738;28;20168;-71
2023/09/22 00:49:07;;;;;;;2.30;1.70;;;12.50;99.90;;;;;;4967481;28;20293;-71
2023/09/22 00:51:33;;;;;;;2.93;1.93;;;12.60;99.90;;;;;;4967510;28;20474;-72
2023/09/22 00:54:00;;;;;;;2.60;1.73;;;12.50;99.90;;;;;;4967466;28;20520;-72
2023/09/22 00:56:26;;;;;;;2.10;1.70;;;12.50;99.90;;;;;;4983360;28;20220;-71
2023/09/22 00:58:53;;;;;;;2.20;1.53;;;12.40;99.90;;;;;;4982393;28;20768;-73
2023/09/22 01:01:23;;;;;;;1.60;1.30;;;12.30;99.90;;;;;;4983150;28;20498;-70
2023/09/22 01:03:51;;;;;;;2.73;1.80;;;12.30;99.90;;;;;;4982283;28;20244;-71
2023/09/22 01:06:19;;;;;;;3.20;1.37;;;12.20;99.90;;;;;;4965513;28;20748;-71
2023/09/22 01:08:45;;;;;;;1.73;1.17;;;12.20;99.90;;;;;;4966107;28;20603;-71
2023/09/22 01:11:11;;;;;;;3.50;1.60;;;12.20;99.90;;;;;;4971174;28;20431;-71
2023/09/22 01:13:37;;;;;;;1.80;1.30;;;12.20;99.90;;;;;;4977855;28;20503;-70
2023/09/22 01:16:03;;;;;;;1.90;1.40;;;12.10;99.90;;;;;;4964909;28;20412;-70
2023/09/22 01:18:29;;;;;;;1.80;1.30;;;12.10;99.90;;;;;;4981848;28;20271;-72
2023/09/22 01:20:58;;;;;;;2.50;1.50;;;12.10;99.90;;;;;;4963978;28;20423;-70
2023/09/22 01:23:24;;;;;;;2.10;1.30;;;12.10;99.90;;;;;;4981293;28;20598;-70
2023/09/22 01:25:50;;;;;;;2.43;1.40;;;12.00;99.90;;;;;;4960979;28;20460;-72
2023/09/22 01:28:15;;;;;;;2.43;1.40;;;12.00;99.90;;;;;;4954260;29;20256;-71
2023/09/22 01:30:42;;;;;;;3.10;1.80;;;12.00;99.90;;;;;;4964143;28;20479;-71
2023/09/22 01:33:09;;;;;;;2.67;1.63;;;12.00;99.90;;;;;;4965175;28;20204;-71
2023/09/22 01:35:36;;;;;;;3.00;1.80;;;12.00;99.90;;;;;;4980998;28;20729;-71
2023/09/22 01:38:17;;;;;;;3.23;1.97;;;12.00;99.90;;;;;;4965489;28;20423;-71
2023/09/22 01:40:43;;;;;;;3.00;2.00;;;12.00;99.90;;;;;;4949169;28;20244;-71
2023/09/22 01:43:09;;;;;;;3.50;2.13;;;12.00;99.90;;;;;;4980866;28;20447;-71
2023/09/22 01:45:35;;;;;;;4.20;2.10;;;12.00;99.90;;;;;;4964217;28;20844;-72
2023/09/22 01:48:00;;;;;;;2.27;1.87;;;12.00;99.90;;;;;;4981267;28;20419;-71
2023/09/22 01:50:26;;;;;;;4.40;2.10;;;12.00;99.90;;;;;;4965792;28;20187;-71
2023/09/22 01:52:52;;;;;;;3.33;2.53;;;12.00;99.90;;;;;;4966003;28;20692;-71
2023/09/22 01:55:19;;;;;;;4.50;2.10;;;11.90;99.90;;;;;;4982617;28;20177;-70
2023/09/22 01:57:52;;;;;;;13.13;5.30;;;11.90;99.90;;;;;;4980842;28;20193;-71
2023/09/22 02:00:18;;;;;;;6.73;4.40;;;11.90;99.90;;;;;;4964541;28;20405;-72
2023/09/22 02:02:47;;;;;;;6.30;3.70;;;11.90;99.90;;;;;;4982029;28;20720;-70
2023/09/22 02:05:17;;;;;;;6.93;3.33;;;11.80;99.90;;;;;;4982159;28;20403;-70
2023/09/22 02:07:42;;;;;;;3.77;2.73;;;11.70;99.90;;;;;;4981784;28;20465;-71
2023/09/22 02:10:13;;;;;;;5.67;3.33;;;11.70;99.90;;;;;;4945024;29;20465;-71
2023/09/22 02:12:41;;;;;;;3.60;2.60;;;11.70;99.90;;;;;;4967896;28;20242;-72
2023/09/22 02:15:10;;;;;;;3.90;2.97;;;11.70;99.90;;;;;;4966643;28;20424;-72
2023/09/22 02:17:43;;;;;;;3.43;2.80;;;11.70;99.90;;;;;;4983272;28;20473;-71
2023/09/22 02:20:18;;;;;;;3.03;2.43;;;11.70;99.90;;;;;;4982068;28;20411;-71
2023/09/22 02:22:47;;;;;;;4.57;3.20;;;11.70;99.90;;;;;;4989357;28;20505;-71
2023/09/22 02:25:16;;;;;;;6.33;4.20;;;11.60;99.90;;;;;;4964351;28;20421;-71
2023/09/22 02:27:43;;;;;;;6.53;4.90;;;11.60;99.90;;;;;;4970023;28;20467;-71
2023/09/22 02:30:10;;;;;;;8.20;4.60;;;11.60;99.90;;;;;;4962542;28;20474;-71
2023/09/22 02:32:38;;;;;;;4.30;3.50;;;11.60;99.90;;;;;;4961103;29;20467;-71
2023/09/22 02:35:05;;;;;;;5.10;3.47;;;11.50;99.90;;;;;;4959524;29;20401;-72
2023/09/22 02:37:30;;;;;;;4.33;3.57;;;11.50;99.90;;;;;;4963995;28;20488;-71
2023/09/22 02:39:56;;;;;;;3.57;2.80;;;11.50;99.90;;;;;;4952758;29;20426;-70
2023/09/22 02:42:23;;;;;;;7.10;3.60;;;11.60;99.90;;;;;;4937226;29;20517;-70
2023/09/22 02:44:49;;;;;;;6.23;4.07;;;11.50;99.90;;;;;;4943378;29;20940;-70
2023/09/22 02:47:15;;;;;;;3.90;2.70;;;11.50;99.90;;;;;;4924423;29;20465;-70
2023/09/22 02:49:43;;;;;;;3.23;2.50;;;11.50;99.90;;;;;;4952036;29;20221;-71
2023/09/22 02:52:08;;;;;;;3.87;2.77;;;11.50;99.90;;;;;;4965034;29;20472;-72
2023/09/22 02:54:34;;;;;;;3.10;2.40;;;11.50;99.90;;;;;;4966714;29;20830;-70
2023/09/22 02:57:03;;;;;;;3.07;2.50;;;11.50;99.90;;;;;;4946055;29;20462;-71
2023/09/22 02:59:30;;;;;;;4.37;2.80;;;11.50;99.90;;;;;;4945589;29;20487;-71
2023/09/22 03:01:57;;;;;;;3.47;2.53;;;11.50;99.90;;;;;;4950536;29;20898;-71
2023/09/22 03:04:22;;;;;;;4.23;2.67;;;11.50;99.90;;;;;;4946760;29;20721;-71
2023/09/22 03:06:48;;;;;;;4.53;2.80;;;11.50;99.90;;;;;;4962180;29;20421;-71
2023/09/22 03:09:15;;;;;;;3.10;2.20;;;11.40;99.90;;;;;;4963262;28;20271;-70
2023/09/22 03:11:41;;;;;;;3.90;2.43;;;11.50;99.90;;;;;;4955604;29;20225;-70
2023/09/22 03:14:07;;;;;;;5.37;2.73;;;11.40;99.90;;;;;;4927039;29;20901;-72
2023/09/22 03:16:33;;;;;;;3.07;2.77;;;11.40;99.90;;;;;;4945231;29;20567;-70
2023/09/22 03:19:02;;;;;;;4.80;3.10;;;11.40;99.90;;;;;;4961973;29;20736;-71
2023/09/22 03:21:27;;;;;;;5.07;3.10;;;11.30;99.90;;;;;;4961034;29;20540;-71
2023/09/22 03:23:54;;;;;;;3.47;2.50;;;11.30;99.90;;;;;;4946957;29;20473;-72
2023/09/22 03:26:21;;;;;;;4.87;2.87;;;11.30;99.90;;;;;;4942227;29;20545;-72
2023/09/22 03:28:48;;;;;;;3.30;2.50;;;11.30;99.90;;;;;;4946951;28;20483;-70
2023/09/22 03:31:16;;;;;;;2.70;2.40;;;11.30;99.90;;;;;;4950192;28;20440;-71
2023/09/22 03:33:46;;;;;;;3.67;2.70;;;11.30;99.90;;;;;;4965142;28;20448;-70
2023/09/22 03:36:12;;;;;;;3.13;2.40;;;11.30;99.90;;;;;;4966921;28;20423;-73
2023/09/22 03:38:39;;;;;;;5.60;2.83;;;11.40;99.90;;;;;;4964326;28;20424;-72
2023/09/22 03:41:05;;;;;;;5.40;2.93;;;11.50;99.90;;;;;;4964485;28;20488;-70
2023/09/22 03:43:32;;;;;;;4.17;3.00;;;11.50;99.90;;;;;;4948594;28;20471;-71
2023/09/22 03:45:58;;;;;;;5.30;3.67;;;11.60;99.90;;;;;;4981773;28;20692;-71
2023/09/22 03:48:24;;;;;;;4.10;3.20;;;11.70;99.90;;;;;;4981837;28;20544;-71
2023/09/22 03:50:49;;;;;;;4.60;3.20;;;11.70;99.90;;;;;;4982091;28;20164;-72
2023/09/22 03:53:15;;;;;;;4.90;3.60;;;11.80;99.90;;;;;;4963811;28;20448;-70
2023/09/22 03:55:41;;;;;;;3.87;2.90;;;11.80;99.90;;;;;;4986587;28;20185;-72
2023/09/22 03:58:07;;;;;;;5.83;3.30;;;11.80;99.90;;;;;;4982298;28;20396;-71
2023/09/22 04:00:33;;;;;;;6.33;3.90;;;11.80;99.90;;;;;;4967872;28;20204;-71
2023/09/22 04:03:01;;;;;;;4.30;3.10;;;11.80;99.90;;;;;;4984898;28;20262;-71
2023/09/22 04:05:28;;;;;;;4.17;3.30;;;11.80;99.90;;;;;;4967117;28;20192;-69
2023/09/22 04:07:57;;;;;;;5.63;3.00;;;11.70;99.90;;;;;;4948958;28;20430;-70
2023/09/22 04:10:23;;;;;;;6.90;3.50;;;11.70;99.90;;;;;;4969977;28;20258;-71
2023/09/22 04:12:49;;;;;;;5.63;3.13;;;11.70;99.90;;;;;;4984845;28;20416;-71
2023/09/22 04:15:15;;;;;;;3.90;2.70;;;11.70;99.90;;;;;;4983599;28;20460;-72
2023/09/22 04:17:42;;;;;;;6.90;3.57;;;11.70;99.90;;;;;;4967034;28;20191;-72
2023/09/22 04:20:11;;;;;;;7.20;3.70;;;11.70;99.90;;;;;;4982195;28;20412;-71
2023/09/22 04:22:37;;;;;;;6.60;3.60;;;11.70;99.90;;;;;;4968227;28;20423;-72
2023/09/22 04:25:12;;;;;;;4.83;3.50;;;11.80;99.90;;;;;;4967122;28;20420;-72
2023/09/22 04:27:43;;;;;;;6.70;3.30;;;11.90;99.90;;;;;;4984185;28;20473;-73
2023/09/22 04:30:15;;;;;;;8.30;3.60;;;11.90;99.90;;;;;;4965518;28;20551;-71
2023/09/22 04:32:42;;;;;;;5.33;3.73;;;12.00;99.90;;;;;;4969807;28;20426;-73
2023/09/22 04:35:09;;;;;;;10.13;4.80;;;12.00;99.90;;;;;;4994302;28;20423;-71
2023/09/22 04:37:35;;;;;;;7.00;4.60;;;12.00;99.90;;;;;;4976238;28;20422;-71
2023/09/22 04:40:03;;;;;;;8.97;4.00;;;12.00;99.90;;;;;;4960998;28;20423;-72
2023/09/22 04:42:29;;;;;;;10.63;4.97;;;12.10;99.90;;;;;;4960493;28;20740;-72
2023/09/22 04:44:55;;;;;;;11.13;4.80;;;12.10;99.90;;;;;;4969918;28;20448;-72
2023/09/22 04:47:20;;;;;;;4.80;3.90;;;12.20;99.90;;;;;;4984869;28;20422;-72
2023/09/22 04:49:46;;;;;;;6.60;4.37;;;12.20;99.90;;;;;;4983489;28;20573;-72
2023/09/22 04:52:12;;;;;;;6.40;4.20;;;12.30;99.90;;;;;;4947939;29;20283;-71
2023/09/22 04:54:39;;;;;;;9.43;4.10;;;12.30;99.90;;;;;;4947703;29;20204;-71
2023/09/22 04:57:05;;;;;;;5.03;3.87;;;12.40;99.90;;;;;;4971635;28;20443;-73
2023/09/22 04:59:31;;;;;;;4.00;3.60;;;12.50;99.90;;;;;;4967067;28;20420;-73
2023/09/22 05:01:59;;;;;;;4.27;3.30;;;12.50;99.90;;;;;;4968434;28;20186;-73
2023/09/22 05:04:25;;;;;;;3.43;2.90;;;12.60;99.90;;;;;;4967768;28;20207;-71
2023/09/22 05:06:51;;;;;;;4.27;3.10;;;12.60;99.90;;;;;;4968001;28;20507;-71
2023/09/22 05:09:17;;;;;;;2.60;2.40;;;12.60;99.90;;;;;;4985734;28;20494;-71
2023/09/22 05:11:43;;;;;;;2.40;2.20;;;12.60;99.90;;;;;;4989245;28;20207;-72
2023/09/22 05:14:08;;;;;;;3.07;2.47;;;12.60;99.90;;;;;;4973366;28;20239;-73
2023/09/22 05:16:35;;;;;;;3.23;2.50;;;12.50;99.90;;;;;;4969961;28;20428;-72
2023/09/22 05:19:02;;;;;;;5.03;2.53;;;12.40;99.90;;;;;;4969667;28;20184;-72
2023/09/22 05:21:27;;;;;;;5.07;2.47;;;12.40;99.90;;;;;;4969203;28;20696;-74
2023/09/22 05:23:54;;;;;;;3.17;2.87;;;12.30;99.90;;;;;;4966701;29;20318;-74
2023/09/22 05:26:23;;;;;;;4.50;3.17;;;12.30;99.90;;;;;;4988033;28;20179;-73
2023/09/22 05:28:49;;;;;;;3.57;3.27;;;12.30;99.90;;;;;;4947278;29;20473;-73
2023/09/22 05:31:18;;;;;;;3.50;2.90;;;12.30;99.90;;;;;;4953649;29;20437;-71
2023/09/22 05:33:44;;;;;;;3.63;3.00;;;12.30;99.90;;;;;;4966654;29;20467;-73
2023/09/22 05:36:11;;;;;;;6.10;4.20;;;12.40;99.90;;;;;;4938462;29;20421;-73
2023/09/22 05:38:37;;;;;;;5.23;3.50;;;12.40;99.90;;;;;;4945128;29;20204;-71
2023/09/22 05:41:04;;;;;;;5.37;3.23;;;12.50;99.90;;;;;;4960823;28;20533;-74
2023/09/22 05:43:32;;;;;;;4.43;2.80;;;12.50;99.90;;;;;;4967303;28;20432;-74
2023/09/22 05:45:58;;;;;;;3.63;2.80;;;12.50;99.90;;;;;;4971202;28;21010;-75
2023/09/22 05:48:24;;;;;;;3.90;3.07;;;12.60;99.90;;;;;;4937787;29;20884;-75
2023/09/22 05:51:00;;;;;;;4.87;3.20;;;12.60;99.90;;;;;;4952659;29;20418;-72
2023/09/22 05:53:27;;;;;;;3.70;2.43;;;12.70;99.90;;;;;;4968079;29;20216;-73
2023/09/22 05:56:20;;;;;;;5.43;3.17;;;12.70;99.90;;;;;;4969145;29;20412;-73
2023/09/22 05:58:46;;;;;;;4.63;2.60;;;12.70;99.90;;;;;;4968761;29;20872;-72
2023/09/22 06:01:13;;;;;;;3.30;2.60;;;12.70;99.90;;;;;;4975790;28;20444;-74
2023/09/22 06:03:41;;;;;;;3.77;3.00;;;12.70;99.90;;;;;;4954439;29;20558;-74
2023/09/22 06:06:11;;;;;;;5.53;1.90;;;12.80;99.90;;;;;;4938790;29;20420;-73
2023/09/22 06:08:57;;;;;;;2.50;2.30;;;12.80;99.90;;;;;;4972878;28;20484;-73
2023/09/22 06:11:23;;;;;;;3.20;2.90;;;12.80;99.90;;;;;;4964746;28;20419;-73
2023/09/22 06:13:49;;;;;;;2.80;2.50;;;12.80;99.90;;;;;;4961789;29;20478;-74
2023/09/22 06:16:14;;;;;;;3.70;2.90;;;12.90;99.90;;;;;;4971692;29;20185;-72
2023/09/22 06:18:40;;;;;;;2.53;2.30;;;12.90;99.90;;;;;;4957895;29;20227;-73
2023/09/22 06:21:06;;;;;;;3.37;2.40;;;13.00;99.90;;;;;;4952466;29;20176;-74
2023/09/22 06:23:32;;;;;;;3.00;2.40;;;13.10;99.90;;;;;;4968875;28;20453;-73
2023/09/22 06:26:03;;;;;;;3.50;2.20;;;13.20;99.90;;;;;;4958324;29;20416;-73
2023/09/22 06:28:29;;;;;;;5.40;3.03;;;13.30;99.90;;;;;;4933541;29;20292;-72
2023/09/22 06:31:03;;;;;;;5.20;3.47;;;13.30;99.90;;;;;;4947957;29;20420;-73
2023/09/22 06:33:30;;;;;;;4.03;2.20;;;13.30;99.90;;;;;;4971207;29;20452;-74
2023/09/22 06:35:58;;;;;;;2.80;2.13;;;13.40;99.90;;;;;;4970085;29;20731;-74
2023/09/22 06:38:24;;;;;;;2.80;1.87;;;13.40;99.90;;;;;;4971034;29;20452;-74
2023/09/22 06:40:54;;;;;;;3.37;1.80;;;13.40;99.90;;;;;;4970156;29;20684;-74
2023/09/22 06:43:23;;;;;;;4.93;2.43;;;13.40;99.90;;;;;;4952314;29;20216;-73
2023/09/22 06:45:52;;;;;;;2.70;1.80;;;13.50;99.90;;;;;;4936066;29;20861;-73
2023/09/22 06:48:25;;;;;;;1.80;1.50;;;13.50;99.90;;;;;;4933089;29;20421;-72
2023/09/22 06:50:53;;;;;;;2.20;1.67;;;13.50;99.90;;;;;;4953715;29;20430;-74
2023/09/22 06:53:19;;;;;;;2.87;1.80;;;13.60;99.90;;;;;;4967339;28;20448;-73
2023/09/22 06:55:45;;;;;;;2.70;2.20;;;13.80;99.90;;;;;;4971919;28;20469;-73
2023/09/22 06:58:11;;;;;;;3.70;2.20;;;14.00;99.90;;;;;;4965070;29;20424;-74
2023/09/22 07:00:36;;;;;;;2.23;1.87;;;14.20;99.90;;;;;;4961845;29;20252;-74
2023/09/22 07:03:03;;;;;;;3.63;2.30;;;14.40;99.90;;;;;;4958652;29;20236;-74
2023/09/22 07:05:30;;;;;;;3.70;1.50;;;14.50;99.90;;;;;;4971340;29;20200;-75
2023/09/22 07:07:57;;;;;;;4.03;2.27;;;14.50;99.90;;;;;;4953160;29;20439;-74
2023/09/22 07:10:24;;;;;;;2.23;1.70;;;14.50;99.90;;;;;;4953025;29;20466;-75
2023/09/22 07:15:29;;;;;;;2.30;1.60;;;14.60;99.90;;;;;;4973591;23;20498;-74
2023/09/22 07:17:55;;;;;;;5.00;1.10;;;14.60;99.90;;;;;;4952552;29;20457;-75
2023/09/22 07:20:21;;;;;;;2.13;1.33;;;14.60;99.90;;;;;;4944817;29;20448;-74
2023/09/22 07:22:47;;;;;;;1.50;1.23;;;14.50;99.90;;;;;;4953969;28;20425;-75
2023/09/22 07:25:14;;;;;;;2.27;1.57;;;14.60;99.90;;;;;;4955822;29;20417;-74
2023/09/22 07:27:44;;;;;;;2.13;1.20;;;14.60;99.90;;;;;;4972258;29;20416;-74
2023/09/22 07:30:18;;;;;;;2.33;1.43;;;14.60;99.90;;;;;;4939907;29;20468;-73
2023/09/22 07:32:51;;;;;;;2.50;1.33;;;14.70;99.90;;;;;;4954225;29;20416;-75
2023/09/22 07:35:18;;;;;;;2.73;1.60;;;14.70;99.90;;;;;;4974589;28;20798;-74
2023/09/22 07:37:45;;;;;;;2.23;1.53;;;14.80;99.90;;;;;;4959628;29;20393;-74
2023/09/22 07:40:12;;;;;;;1.40;1.30;;;14.80;99.90;;;;;;4958647;29;20193;-73
2023/09/22 07:42:41;;;;;;;2.27;1.47;;;14.80;99.90;;;;;;4940556;29;20414;-73
2023/09/22 07:45:08;;;;;;;1.90;1.30;;;14.80;99.90;;;;;;4954566;29;20410;-74
2023/09/22 07:47:34;;;;;;;4.20;1.80;;;14.90;99.90;;;;;;4953541;29;20422;-73
2023/09/22 07:50:00;;;;;;;3.07;1.80;;;14.90;99.90;;;;;;4953519;29;20449;-75
2023/09/22 07:52:26;;;;;;;3.30;1.70;;;15.00;99.90;;;;;;4959654;29;20404;-74
2023/09/22 07:54:53;;;;;;;2.27;1.83;;;15.00;99.90;;;;;;4953929;29;20284;-74
2023/09/22 07:57:19;;;;;;;1.63;1.33;;;15.00;99.90;;;;;;4948558;29;20530;-73
2023/09/22 07:59:47;;;;;;;1.30;0.83;;;15.00;99.90;;;;;;4937122;29;20489;-71
2023/09/22 08:02:14;;;;;;;1.63;1.40;;;15.10;99.90;;;;;;4970935;29;20421;-72
2023/09/22 08:04:40;;;;;;;2.03;1.37;;;15.10;99.90;;;;;;4973844;28;20458;-72
2023/09/22 08:07:06;;;;;;;4.20;1.80;;;15.20;99.90;;;;;;4973589;29;20417;-75
2023/09/22 08:09:33;;;;;;;2.33;1.33;;;15.20;99.90;;;;;;4955346;29;20236;-74
2023/09/22 08:11:59;;;;;;;1.73;1.47;;;15.30;99.90;;;;;;4976244;28;20413;-74
2023/09/22 08:14:26;;;;;;;5.60;2.00;;;15.30;99.90;;;;;;4957855;29;20468;-74
2023/09/22 08:16:52;;;;;;;2.77;1.70;;;15.40;99.90;;;;;;4974810;29;20416;-75
2023/09/22 08:19:17;;;;;;;1.80;1.33;;;15.50;99.90;;;;;;4973872;29;20421;-74
2023/09/22 08:21:46;;;;;;;1.70;1.50;;;15.60;99.90;;;;;;4974521;29;20185;-72
2023/09/22 08:24:13;;;;;;;2.37;1.67;;;15.70;99.90;;;;;;4957140;29;20433;-74
2023/09/22 08:26:41;;;;;;;2.53;1.70;;;15.80;99.90;;;;;;4954992;29;20429;-72
2023/09/22 08:29:09;;;;;;;1.77;1.57;;;15.90;99.90;;;;;;4973872;28;20452;-72
2023/09/22 08:31:35;;;;;;;1.40;1.00;;;16.00;99.90;;;;;;4956393;29;20464;-74
2023/09/22 08:34:02;;;;;;;1.80;1.33;;;16.20;99.90;;;;;;4971450;29;20441;-73
2023/09/22 08:36:28;;;;;;;3.10;2.30;;;16.30;99.90;;;;;;4964480;29;20653;-74
2023/09/22 08:38:55;;;;;;;1.60;1.10;;;16.40;99.90;;;;;;4950594;29;20429;-74
2023/09/22 08:41:23;;;;;;;2.20;1.63;;;16.50;99.90;;;;;;4972426;29;20201;-75
2023/09/22 08:43:49;;;;;;;2.67;1.37;;;16.60;99.90;;;;;;4973380;29;20488;-74
2023/09/22 08:46:23;;;;;;;2.23;1.50;;;16.70;99.90;;;;;;4942222;29;20420;-76
2023/09/22 08:48:54;;;;;;;4.17;1.53;;;16.80;99.90;;;;;;4976031;29;20456;-75
2023/09/22 08:51:22;;;;;;;1.50;1.13;;;17.00;99.90;;;;;;4961312;29;20389;-75
2023/09/22 08:53:48;;;;;;;2.70;1.30;;;17.20;99.90;;;;;;4976229;28;20720;-76
2023/09/22 08:56:15;;;;;;;1.87;1.33;;;17.40;99.90;;;;;;4942770;29;20412;-75
2023/09/22 08:58:41;;;;;;;3.07;1.50;;;17.60;99.90;;;;;;4940606;29;20501;-76
2023/09/22 09:01:07;;;;;;;2.83;1.50;;;17.90;99.90;;;;;;4957918;29;20403;-75
2023/09/22 09:03:53;;;;;;;1.93;1.10;;;18.10;99.90;;;;;;4955506;29;20307;-75
2023/09/22 09:06:21;;;;;;;3.20;1.63;;;18.30;99.90;;;;;;4957507;29;20422;-74
2023/09/22 09:09:12;;;;;;;2.17;1.70;;;18.40;99.90;;;;;;4956932;29;20462;-74
2023/09/22 09:11:59;;;;;;;2.90;1.57;;;18.50;99.90;;;;;;4956212;29;20430;-76
2023/09/22 09:14:28;;;;;;;4.77;1.37;;;18.60;99.90;;;;;;4956893;29;20516;-76
2023/09/22 09:16:58;;;;;;;2.60;1.50;;;18.80;99.90;;;;;;4944303;28;20730;-74
2023/09/22 09:19:26;;;;;;;3.33;1.77;;;19.00;99.90;;;;;;4957283;29;20529;-74
2023/09/22 09:22:05;;;;;;;2.23;1.40;;;19.10;99.90;;;;;;4973613;29;20424;-72
2023/09/22 09:24:33;;;;;;;2.93;1.30;;;19.20;99.90;;;;;;4943513;29;20469;-75
2023/09/22 09:27:00;;;;;;;5.80;1.53;;;19.10;99.90;;;;;;4936776;29;20432;-78
2023/09/22 09:29:33;;;;;;;2.67;1.33;;;19.00;99.90;;;;;;4960360;29;20469;-77
2023/09/22 09:32:03;;;;;;;2.07;1.07;;;19.00;99.90;;;;;;4961720;29;20464;-76
2023/09/22 09:34:40;;;;;;;2.80;1.43;;;19.00;99.00;;;;;;4912598;29;20468;-78
2023/09/22 09:37:16;;;;;;;3.33;1.07;;;19.10;99.70;;;;;;4912060;29;20413;-76
2023/09/22 09:39:52;;;;;;;2.63;1.37;;;19.30;96.50;;;;;;5221011;23;20512;-75
2023/09/22 09:42:24;;;;;;;4.27;1.33;;;19.50;90.50;;;;;;4981378;28;20432;-78
2023/09/22 09:44:59;;;;;;;2.17;1.60;;;19.60;86.80;;;;;;4964739;28;20432;-76
2023/09/22 09:47:34;;;;;;;2.60;1.23;;;19.80;81.70;;;;;;4942549;29;20438;-77
2023/09/22 09:50:04;;;;;;;5.80;1.47;;;20.00;80.60;;;;;;4924464;29;20471;-76
2023/09/22 09:52:51;;;;;;;4.20;1.17;;;20.00;74.90;;;;;;4938028;29;20442;-76
2023/09/22 09:55:20;;;;;;;2.90;1.40;;;19.80;73.60;;;;;;4939637;29;20410;-76
2023/09/22 09:57:47;;;;;;;2.60;1.00;;;19.70;72.10;;;;;;4920322;29;20476;-75
2023/09/22 10:00:19;;;;;;;3.53;1.53;;;19.50;72.70;;;;;;4936857;29;20416;-77
2023/09/22 10:02:47;;;;;;;2.37;1.40;;;19.60;69.10;;;;;;4901215;29;20432;-77
2023/09/22 10:05:23;;;;;;;3.03;1.33;;;19.50;70.00;;;;;;4902389;29;20419;-77
2023/09/22 10:07:56;;;;;;;6.20;1.80;;;19.40;68.60;;;;;;4902076;29;20435;-77
2023/09/22 10:10:29;;;;;;;2.60;1.57;;;19.40;67.70;;;;;;4918785;29;20477;-77
2023/09/22 10:12:57;;;;;;;3.93;1.83;;;19.40;69.50;;;;;;4917251;29;20424;-77
2023/09/22 10:15:51;;;;;;;2.83;1.10;;;19.40;68.40;;;;;;4918696;29;20404;-75
2023/09/22 10:18:42;;;;;;;4.80;1.50;;;19.60;63.60;;;;;;4913405;29;20481;-78
2023/09/22 10:21:51;;;;;;;3.60;1.20;;;19.60;64.20;;;;;;4901669;29;20416;-76
2023/09/22 10:24:23;;;;;;;2.67;1.60;;;19.40;63.70;;;;;;4849195;29;20520;-75
2023/09/22 10:26:58;;;;;;;5.30;1.53;;;19.20;64.40;;;;;;4881163;29;20414;-76
2023/09/22 10:29:42;;;;;;;4.47;1.40;;;19.10;64.30;;;;;;4867276;29;20448;-77
2023/09/22 10:32:18;;;;;;;3.20;2.00;;;19.00;64.60;;;;;;4895708;29;20417;-76
2023/09/22 10:34:56;;;;;;;3.30;1.10;;;18.90;65.10;;;;;;4897923;29;20426;-74
2023/09/22 10:37:29;;;;;;;3.20;1.93;;;18.90;64.90;;;;;;4885843;29;20480;-75
2023/09/22 10:40:12;;;;;;;6.07;2.00;;;18.90;63.60;;;;;;4903101;29;20451;-76
2023/09/22 10:42:56;;;;;;;4.03;1.83;;;19.00;63.60;;;;;;4903716;29;20427;-77
2023/09/22 10:45:30;;;;;;;1.77;1.23;;;19.00;63.80;;;;;;4919743;29;20794;-78
2023/09/22 10:48:02;;;;;;;3.40;1.30;;;19.20;64.10;;;;;;4888772;29;20464;-76
2023/09/22 10:51:06;;;;;;;1.97;1.30;;;19.40;63.90;;;;;;4868303;29;20489;-75
2023/09/22 10:53:38;;;;;;;2.33;1.27;;;19.60;62.90;;;;;;4898219;29;20452;-77
2023/09/22 10:56:05;;;;;;;1.67;1.00;;;19.70;60.30;;;;;;4921883;29;20415;-75
2023/09/22 10:58:38;;;;;;;2.70;1.30;;;19.60;60.50;;;;;;4908864;29;20473;-76
2023/09/22 11:01:05;;;;;;;3.27;1.80;;;19.70;60.40;;;;;;4923966;29;20454;-76
2023/09/22 11:03:38;;;;;;;2.67;1.33;;;19.90;59.90;;;;;;4940475;29;20434;-76
2023/09/22 11:06:10;;;;;;;3.17;1.60;;;20.20;59.10;;;;;;4894049;29;20434;-76
2023/09/22 11:08:53;;;;;;;3.27;1.40;;;20.50;58.60;;;;;;4927207;29;20438;-78
2023/09/22 11:11:20;;;;;;;3.23;1.70;;;20.70;57.70;;;;;;4921032;29;20445;-77
2023/09/22 11:16:59;;;;;;;1.50;1.20;;;20.70;57.30;;;;;;3421195;23;20694;-78
2023/09/22 11:19:41;;;;;;;4.00;1.40;;;20.80;56.40;;;;;;5013004;23;20497;-76
2023/09/22 11:22:09;;;;;;;2.00;1.20;;;20.70;55.50;;;;;;4960386;29;20429;-74
2023/09/22 11:24:35;;;;;;;2.80;1.60;;;20.60;55.90;;;;;;4940726;29;20460;-75
2023/09/22 11:27:04;;;;;;;2.10;1.07;;;20.60;55.80;;;;;;4924420;29;20426;-76
2023/09/22 11:29:33;;;;;;;4.30;1.20;;;20.60;55.20;;;;;;4937730;29;20458;-76
2023/09/22 11:32:04;;;;;;;4.20;1.80;;;20.50;55.00;;;;;;4900982;29;20461;-76
2023/09/22 11:34:46;;;;;;;2.93;1.60;;;20.30;54.80;;;;;;4845060;29;20456;-76
2023/09/22 11:37:12;;;;;;;2.57;1.60;;;20.30;55.60;;;;;;4846641;29;20453;-77
2023/09/22 11:39:39;;;;;;;2.63;2.27;;;20.40;55.30;;;;;;4830291;29;20461;-76
2023/09/22 11:42:51;;;;;;;2.73;1.47;;;20.50;55.40;;;;;;4844597;29;20452;-76
2023/09/22 11:45:41;;;;;;;2.10;1.57;;;20.70;54.80;;;;;;4829444;29;20797;-77
2023/09/22 11:48:12;;;;;;;4.77;1.93;;;20.80;54.50;;;;;;4830759;29;20442;-75
2023/09/22 11:50:38;;;;;;;2.37;1.43;;;20.80;54.40;;;;;;4844374;29;20479;-76
2023/09/22 11:53:18;;;;;;;2.00;1.30;;;20.80;54.60;;;;;;4845312;29;20502;-76
2023/09/22 11:55:47;;;;;;;2.90;2.17;;;21.00;54.50;;;;;;4818460;29;20225;-76
2023/09/22 11:58:15;;;;;;;8.23;2.20;;;21.10;53.30;;;;;;4848099;29;20604;-77
2023/09/22 12:00:43;;;;;;;3.33;1.50;;;21.20;52.20;;;;;;4824354;29;20431;-75
2023/09/22 12:03:10;;;;;;;2.33;1.13;;;21.20;52.80;;;;;;4869163;29;20456;-77
2023/09/22 12:05:52;;;;;;;2.20;1.13;;;21.20;52.60;;;;;;4874932;29;20487;-74
2023/09/22 12:10:54;;;;;;;4.00;1.67;;;20.80;52.80;;;;;;5114736;23;20778;-76
2023/09/22 12:13:20;;;;;;;2.23;1.27;;;20.60;52.60;;;;;;4962126;29;20471;-76
2023/09/22 12:15:46;;;;;;;2.60;1.63;;;20.40;53.20;;;;;;4960986;29;20436;-75
2023/09/22 12:18:12;;;;;;;2.00;1.40;;;20.20;53.70;;;;;;4960269;29;20432;-73
2023/09/22 12:20:38;;;;;;;2.27;1.30;;;20.10;54.00;;;;;;4974817;28;20429;-74
2023/09/22 12:23:05;;;;;;;2.23;1.50;;;19.90;54.20;;;;;;4947824;29;20213;-75
2023/09/22 12:25:31;;;;;;;3.47;2.30;;;19.80;54.30;;;;;;4978425;29;20405;-76
2023/09/22 12:27:57;;;;;;;4.17;1.83;;;19.70;54.50;;;;;;4975571;29;20810;-78
2023/09/22 12:30:24;;;;;;;3.90;1.70;;;19.60;54.40;;;;;;4959355;29;20566;-76
2023/09/22 12:32:50;;;;;;;3.97;1.77;;;19.70;54.40;;;;;;4971193;28;20205;-76
2023/09/22 12:35:17;;;;;;;2.40;1.83;;;19.50;54.00;;;;;;4962168;29;20402;-76
2023/09/22 12:37:49;;;;;;;2.93;1.83;;;19.50;54.40;;;;;;4960797;29;20193;-76
2023/09/22 12:40:16;;;;;;;3.93;1.40;;;19.50;54.70;;;;;;4960685;29;20441;-76
2023/09/22 12:42:43;;;;;;;2.67;1.70;;;19.50;55.10;;;;;;4977250;28;20480;-77
2023/09/22 12:45:09;;;;;;;2.07;1.53;;;19.60;55.20;;;;;;4978477;29;20413;-76
2023/09/22 12:47:35;;;;;;;2.10;1.30;;;19.70;55.00;;;;;;4960961;29;20177;-75
2023/09/22 12:50:04;;;;;;;1.90;1.20;;;19.80;54.90;;;;;;4975136;29;20452;-75
2023/09/22 12:52:32;;;;;;;2.30;1.43;;;19.90;54.80;;;;;;4961476;29;20189;-76
2023/09/22 12:54:57;;;;;;;3.30;1.40;;;19.80;54.40;;;;;;4974538;28;20508;-75
2023/09/22 12:57:28;;;;;;;2.43;1.10;;;19.80;53.50;;;;;;4960365;29;20489;-76
2023/09/22 13:00:19;;;;;;;4.27;1.60;;;19.90;53.50;;;;;;4957614;29;20410;-77
2023/09/22 13:03:02;;;;;;;2.27;1.53;;;20.10;53.20;;;;;;4958369;29;20520;-77